Aéroclub Castres-Mazamet
ACCUEIL



METAR
LFCK 271330Z AUTO 28015KT 9999 OVC009/// ///TCU 08/07 Q1013 TEMPO RADZ BKN009 BECMG 28017G30KT


Liens utiles


F.F.A
Météo France
OLIVIA
SIA
D.G.A.C
Tarifs Aéroclub

Bienvenue à l'aéroclub de Castres-Mazamet

** **
                           


Actualités

 AérogestOnLine   
Publié le 23-Feb-2024    
Depuis le 16 février, afin d'être plus réactif, le club a mis en place la nouvelle solution logicielle pour les Aéroclubs : AérogestOnLine (https://online.aerogest.fr/Connection/Logon ). Testez là!


 Petit Déjeuner au Club   
Publié le 15-Feb-2024    
Amis pilotes du Club, Un petit-déjeuner est prévu au Club ce samedi 17/02 à partir de 9 heures. N'hésitez pas, venez nombreux. Le Bureau


 Auberge Espagnole   
Publié le 31-Aug-2023    
Le vendredi 8 septembre à 19 heures, repas de rentrée pour les adhérents et leur famille au club. Merci de vous inscrire https://form.jotform.com/232412458474053 A bientôt !


 Journée Portes Ouvertes   
Publié le 01-May-2023    
Le Dimanche 14 mai le Club fait sa journée portes ouvertes. Venez nombreux nous rencontrer !


Voir plus